createdAt,value
2022-11-18T00:01:04.207Z,32.34
2022-11-18T00:03:30.576Z,32.43
2022-11-18T00:05:56.994Z,32.44
2022-11-18T00:08:23.346Z,32.39
2022-11-18T00:10:49.751Z,32.39
2022-11-18T00:13:16.168Z,32.39
2022-11-18T00:15:42.561Z,32.39
2022-11-18T00:18:09.826Z,32.44
2022-11-18T00:20:36.215Z,32.42
2022-11-18T00:23:02.559Z,32.37
2022-11-18T00:25:28.963Z,32.39
2022-11-18T00:27:55.324Z,32.44
2022-11-18T00:30:21.797Z,32.43
2022-11-18T00:32:48.139Z,32.49
2022-11-18T00:35:14.541Z,32.50
2022-11-18T00:37:40.893Z,32.45
2022-11-18T00:40:07.281Z,32.43
2022-11-18T00:42:33.655Z,32.44
2022-11-18T00:45:00.041Z,32.53
2022-11-18T00:47:26.403Z,32.48
2022-11-18T00:49:52.832Z,32.48
2022-11-18T00:52:19.227Z,32.48
2022-11-18T00:54:45.587Z,32.46
2022-11-18T00:57:11.987Z,32.47
2022-11-18T00:59:38.362Z,32.47
2022-11-18T01:02:04.752Z,32.45
2022-11-18T01:04:31.099Z,32.48
2022-11-18T01:06:57.606Z,32.41
2022-11-18T01:09:23.903Z,32.46
2022-11-18T01:11:50.297Z,32.41
2022-11-18T01:14:16.648Z,32.49
2022-11-18T01:16:43.043Z,32.52
2022-11-18T01:19:09.397Z,32.49
2022-11-18T01:21:35.832Z,32.41
2022-11-18T01:24:02.168Z,32.43
2022-11-18T01:26:28.588Z,32.49
2022-11-18T01:28:54.939Z,32.57
2022-11-18T01:31:21.335Z,32.50
2022-11-18T01:33:47.687Z,32.56
2022-11-18T01:36:14.090Z,32.53
2022-11-18T01:38:40.494Z,32.52
2022-11-18T01:41:06.910Z,32.53
2022-11-18T01:43:33.277Z,32.52
2022-11-18T01:45:59.694Z,32.50
2022-11-18T01:48:26.037Z,32.46
2022-11-18T01:50:53.882Z,32.46
2022-11-18T01:53:18.838Z,32.54
2022-11-18T01:55:45.239Z,32.51
2022-11-18T01:58:11.587Z,32.54
2022-11-18T02:00:37.997Z,32.48
2022-11-18T02:03:04.345Z,32.50
2022-11-18T02:05:31.997Z,32.49
2022-11-18T02:07:57.090Z,32.47
2022-11-18T02:10:23.493Z,32.49
2022-11-18T02:12:49.837Z,32.47
2022-11-18T02:15:16.232Z,32.49
2022-11-18T02:17:42.593Z,32.49
2022-11-18T02:20:08.987Z,32.54
2022-11-18T02:22:35.385Z,32.49
2022-11-18T02:25:01.810Z,32.49
2022-11-18T02:27:28.166Z,32.49
2022-11-18T02:29:54.599Z,32.49
2022-11-18T02:32:20.955Z,32.52
2022-11-18T02:34:47.368Z,32.52
2022-11-18T02:37:13.718Z,32.52
2022-11-18T02:39:40.126Z,32.53
2022-11-18T02:42:06.482Z,32.55
2022-11-18T02:44:32.962Z,32.52
2022-11-18T02:46:59.311Z,32.52
2022-11-18T02:49:25.711Z,32.56
2022-11-18T02:51:53.189Z,32.56
2022-11-18T02:54:18.476Z,32.53
2022-11-18T02:56:44.827Z,32.56
2022-11-18T02:59:11.217Z,32.56
2022-11-18T03:01:37.616Z,32.64
2022-11-18T03:04:03.971Z,32.52
2022-11-18T03:06:30.323Z,32.43
2022-11-18T03:08:56.725Z,32.30
2022-11-18T03:11:23.082Z,32.23
2022-11-18T03:13:49.492Z,32.16
2022-11-18T03:16:15.844Z,32.11
2022-11-18T03:18:42.243Z,32.03
2022-11-18T03:21:08.594Z,31.94
2022-11-18T03:23:34.990Z,31.85
2022-11-18T03:26:01.338Z,31.79
2022-11-18T03:28:27.769Z,31.66
2022-11-18T03:30:54.125Z,31.59
2022-11-18T03:33:20.523Z,31.53
2022-11-18T03:35:46.883Z,31.48
2022-11-18T03:38:13.282Z,31.45
2022-11-18T03:40:39.632Z,31.33
2022-11-18T03:43:06.026Z,31.33
2022-11-18T03:45:32.376Z,31.24
2022-11-18T03:47:58.782Z,31.10
2022-11-18T03:50:25.163Z,31.15
2022-11-18T03:52:51.554Z,31.01
2022-11-18T03:55:17.946Z,31.01
2022-11-18T03:57:44.352Z,30.91
2022-11-18T04:00:10.706Z,30.93
2022-11-18T04:02:37.104Z,30.82
2022-11-18T04:05:03.504Z,30.75
2022-11-18T04:07:30.043Z,30.77
2022-11-18T04:09:56.299Z,30.72
2022-11-18T04:12:22.700Z,30.65
2022-11-18T04:14:49.062Z,30.56
2022-11-18T04:17:15.464Z,30.59
2022-11-18T04:19:41.819Z,30.50
2022-11-18T04:22:08.210Z,30.46
2022-11-18T04:24:34.571Z,30.49
2022-11-18T04:27:00.975Z,30.48
2022-11-18T04:29:27.337Z,30.45
2022-11-18T04:31:53.733Z,30.33
2022-11-18T04:34:20.101Z,30.37
2022-11-18T04:36:46.493Z,30.32
2022-11-18T04:39:12.846Z,30.30
2022-11-18T04:41:39.254Z,30.28
2022-11-18T04:44:05.604Z,30.25
2022-11-18T04:46:32.004Z,30.21
2022-11-18T04:48:58.354Z,30.15
2022-11-18T04:51:24.787Z,30.14
2022-11-18T04:53:51.148Z,30.10
2022-11-18T04:56:17.579Z,30.09
2022-11-18T04:58:43.939Z,30.03
2022-11-18T05:01:10.382Z,30.02
2022-11-18T05:03:36.697Z,29.98
2022-11-18T05:06:03.086Z,29.95
2022-11-18T05:08:29.533Z,29.95
2022-11-18T05:10:55.842Z,29.97
2022-11-18T05:13:22.213Z,29.92
2022-11-18T05:15:48.612Z,29.87
2022-11-18T05:18:14.969Z,29.88
2022-11-18T05:20:41.830Z,29.86
2022-11-18T05:23:07.717Z,29.82
2022-11-18T05:25:34.119Z,29.94
2022-11-18T05:28:00.476Z,30.13
2022-11-18T05:30:26.949Z,30.06
2022-11-18T05:32:53.291Z,30.04
2022-11-18T05:35:19.691Z,30.07
2022-11-18T05:37:46.045Z,30.07
2022-11-18T05:40:12.449Z,30.02
2022-11-18T05:42:38.807Z,30.00
2022-11-18T05:45:05.231Z,29.99
2022-11-18T05:47:31.593Z,29.26
2022-11-18T05:49:57.982Z,29.85
2022-11-18T05:52:24.371Z,29.93
2022-11-18T05:54:50.764Z,29.92
2022-11-18T05:57:17.109Z,29.98
2022-11-18T05:59:43.512Z,29.53
2022-11-18T06:02:09.875Z,29.48
2022-11-18T06:04:36.274Z,29.27
2022-11-18T06:07:02.634Z,29.18
2022-11-18T06:09:29.019Z,29.15
2022-11-18T06:11:55.374Z,29.06
2022-11-18T06:14:21.777Z,29.02
2022-11-18T06:16:48.133Z,28.97
2022-11-18T06:19:14.535Z,28.79
2022-11-18T06:21:40.874Z,28.89
2022-11-18T06:24:07.288Z,28.68
2022-11-18T06:26:33.674Z,28.54
2022-11-18T06:29:00.144Z,28.40
2022-11-18T06:31:26.502Z,28.34
2022-11-18T06:33:52.937Z,28.28
2022-11-18T06:36:19.290Z,28.33
2022-11-18T06:38:45.682Z,28.24
2022-11-18T06:41:12.039Z,28.14
2022-11-18T06:43:38.492Z,28.11
2022-11-18T06:46:08.912Z,28.04
2022-11-18T06:48:31.253Z,28.01
2022-11-18T06:50:57.604Z,27.96
2022-11-18T06:53:23.993Z,27.93
2022-11-18T06:55:50.345Z,27.88
2022-11-18T06:58:16.740Z,27.88
2022-11-18T07:00:43.170Z,27.74
2022-11-18T07:03:09.549Z,27.90
2022-11-18T07:05:35.899Z,27.81
2022-11-18T07:08:02.326Z,27.95
2022-11-18T07:10:28.765Z,28.03
2022-11-18T07:12:55.086Z,28.03
2022-11-18T07:15:21.428Z,28.15
2022-11-18T07:17:47.824Z,28.12
2022-11-18T07:20:14.165Z,28.20
2022-11-18T07:22:40.604Z,28.27
2022-11-18T07:25:06.969Z,28.28
2022-11-18T07:27:34.318Z,28.26
2022-11-18T07:29:59.731Z,28.28
2022-11-18T07:32:26.145Z,28.34
2022-11-18T07:34:52.495Z,28.34
2022-11-18T07:37:18.897Z,28.39
2022-11-18T07:39:45.249Z,28.44
2022-11-18T07:42:11.649Z,28.47
2022-11-18T07:44:37.997Z,28.56
2022-11-18T07:47:04.393Z,28.52
2022-11-18T07:49:30.737Z,28.55
2022-11-18T07:51:57.145Z,28.63
2022-11-18T07:54:23.494Z,28.58
2022-11-18T07:56:49.934Z,28.65
2022-11-18T07:59:16.659Z,28.72
2022-11-18T08:01:42.771Z,28.77
2022-11-18T08:04:09.084Z,28.73
2022-11-18T08:06:35.502Z,28.76
2022-11-18T08:09:01.864Z,28.74
2022-11-18T08:11:28.306Z,28.85
2022-11-18T08:13:54.667Z,28.84
2022-11-18T08:16:21.133Z,28.91
2022-11-18T08:18:47.530Z,28.96
2022-11-18T08:21:13.978Z,28.92
2022-11-18T08:23:42.316Z,28.91
2022-11-18T08:26:06.744Z,28.88
2022-11-18T08:28:34.611Z,28.98
2022-11-18T08:30:59.733Z,29.09
2022-11-18T08:33:27.035Z,29.22
2022-11-18T08:35:52.476Z,29.23
2022-11-18T08:38:18.837Z,29.35
2022-11-18T08:40:45.610Z,29.43
2022-11-18T08:43:11.962Z,29.51
2022-11-18T08:45:38.369Z,29.56
2022-11-18T08:48:05.954Z,29.67
2022-11-18T08:50:31.123Z,29.73
2022-11-18T08:52:57.501Z,29.85
2022-11-18T08:55:25.113Z,29.73
2022-11-18T08:57:50.298Z,29.87
2022-11-18T09:00:16.692Z,29.83
2022-11-18T09:02:43.050Z,29.85
2022-11-18T09:05:09.451Z,29.83
2022-11-18T09:07:35.869Z,29.88
2022-11-18T09:10:02.211Z,29.90
2022-11-18T09:12:28.588Z,29.92
2022-11-18T09:17:21.346Z,29.92
2022-11-18T09:19:48.458Z,29.93
2022-11-18T09:22:14.118Z,29.93
2022-11-18T09:24:40.530Z,29.94
2022-11-18T09:27:10.813Z,29.95
2022-11-18T09:29:33.290Z,29.96
2022-11-18T09:31:59.645Z,29.86
2022-11-18T09:34:26.066Z,29.88
2022-11-18T09:36:52.429Z,29.92
2022-11-18T09:39:21.059Z,29.81
2022-11-18T09:41:47.315Z,29.82
2022-11-18T09:44:13.710Z,29.84
2022-11-18T09:46:40.054Z,29.76
2022-11-18T09:49:06.457Z,29.73
2022-11-18T09:51:32.851Z,29.73
2022-11-18T09:53:59.240Z,29.56
2022-11-18T09:56:25.626Z,29.50
2022-11-18T09:58:52.004Z,29.32
2022-11-18T10:01:18.404Z,29.34
2022-11-18T10:03:44.747Z,29.18
2022-11-18T10:06:11.163Z,28.97
2022-11-18T10:08:37.604Z,29.00
2022-11-18T10:11:03.978Z,28.95
2022-11-18T10:13:30.377Z,28.94
2022-11-18T10:15:56.740Z,28.85
2022-11-18T10:18:59.354Z,28.73
2022-11-18T10:20:49.499Z,28.73
2022-11-18T10:23:15.922Z,28.73
2022-11-18T10:25:42.302Z,28.57
2022-11-18T10:28:08.689Z,28.66
2022-11-18T10:30:35.079Z,28.51
2022-11-18T10:33:01.484Z,28.46
2022-11-18T10:35:29.271Z,28.39
2022-11-18T10:38:07.313Z,28.48
2022-11-18T10:40:20.596Z,28.41
2022-11-18T10:42:47.009Z,28.36
2022-11-18T10:45:13.370Z,28.28
2022-11-18T10:47:39.775Z,28.26
2022-11-18T10:50:06.171Z,28.11
2022-11-18T10:52:32.565Z,28.19
2022-11-18T10:54:58.916Z,28.11
2022-11-18T10:57:25.335Z,28.00
2022-11-18T10:59:51.661Z,28.02
2022-11-18T11:02:18.149Z,28.12
2022-11-18T11:04:44.417Z,28.36
2022-11-18T11:07:10.833Z,28.32
2022-11-18T11:09:37.183Z,28.47
2022-11-18T11:12:03.573Z,28.65
2022-11-18T11:14:29.937Z,28.26
2022-11-18T11:16:56.355Z,28.13
2022-11-18T11:19:22.775Z,27.99
2022-11-18T11:21:49.104Z,27.93
2022-11-18T11:24:15.734Z,28.15
2022-11-18T11:29:08.301Z,28.18
2022-11-18T11:31:34.648Z,28.25
2022-11-18T11:34:01.131Z,28.11
2022-11-18T11:36:27.432Z,28.08
2022-11-18T11:38:53.849Z,28.01
2022-11-18T11:41:21.214Z,28.07
2022-11-18T11:43:47.597Z,28.31
2022-11-18T11:46:13.942Z,28.38
2022-11-18T11:48:40.356Z,27.93
2022-11-18T11:51:06.716Z,28.04
2022-11-18T11:53:33.215Z,27.99
2022-11-18T11:55:59.560Z,28.11
2022-11-18T11:58:25.948Z,28.28
2022-11-18T12:00:52.313Z,28.22
2022-11-18T12:03:18.804Z,28.11
2022-11-18T12:05:45.058Z,28.44
2022-11-18T12:08:11.453Z,29.18
2022-11-18T12:10:37.798Z,28.15
2022-11-18T12:13:04.180Z,28.08
2022-11-18T12:15:30.520Z,28.08
2022-11-18T12:17:56.996Z,28.22
2022-11-18T12:20:23.348Z,28.08
2022-11-18T12:22:49.774Z,28.13
2022-11-18T12:25:16.101Z,28.21
2022-11-18T12:27:42.480Z,28.08
2022-11-18T12:30:08.820Z,28.14
2022-11-18T12:32:35.210Z,28.25
2022-11-18T12:35:01.572Z,28.47
2022-11-18T12:37:27.996Z,28.42
2022-11-18T12:39:54.337Z,28.44
2022-11-18T12:42:20.729Z,28.36
2022-11-18T12:44:47.093Z,28.35
2022-11-18T12:47:13.477Z,28.44
2022-11-18T12:49:39.829Z,28.44
2022-11-18T12:52:06.227Z,28.60
2022-11-18T12:54:32.575Z,28.46
2022-11-18T12:56:58.953Z,28.53
2022-11-18T12:59:25.294Z,28.62
2022-11-18T13:01:51.679Z,28.72
2022-11-18T13:04:18.021Z,28.85
2022-11-18T13:06:45.853Z,31.90
2022-11-18T13:09:10.768Z,32.60
2022-11-18T13:11:37.243Z,32.56
2022-11-18T13:14:03.522Z,32.75
2022-11-18T13:16:35.555Z,32.81
2022-11-18T13:18:56.259Z,33.36
2022-11-18T13:21:22.708Z,32.45
2022-11-18T13:23:49.045Z,32.61
2022-11-18T13:26:15.432Z,32.53
2022-11-18T13:28:41.789Z,32.26
2022-11-18T13:31:08.220Z,32.30
2022-11-18T13:33:34.561Z,32.25
2022-11-18T13:36:00.964Z,32.49
2022-11-18T13:38:28.722Z,32.27
2022-11-18T13:40:53.705Z,32.33
2022-11-18T13:43:20.051Z,32.36
2022-11-18T13:45:46.445Z,32.24
2022-11-18T13:48:12.799Z,32.21
2022-11-18T13:50:39.202Z,32.20
2022-11-18T13:53:05.549Z,32.47
2022-11-18T13:55:31.931Z,32.27
2022-11-18T13:57:58.275Z,32.67
2022-11-18T14:00:24.735Z,32.32
2022-11-18T14:02:51.033Z,32.50
2022-11-18T14:05:21.261Z,32.49
2022-11-18T14:07:43.780Z,32.43
2022-11-18T14:10:10.211Z,32.44
2022-11-18T14:12:36.552Z,32.69
2022-11-18T14:15:02.898Z,32.62
2022-11-18T14:17:29.235Z,32.25
2022-11-18T14:19:55.638Z,32.00
2022-11-18T14:22:21.980Z,32.41
2022-11-18T14:24:48.399Z,32.71
2022-11-18T14:27:14.743Z,32.50
2022-11-18T14:29:43.545Z,31.85
2022-11-18T14:32:09.899Z,31.91
2022-11-18T14:34:36.287Z,31.78
2022-11-18T14:37:02.650Z,31.86
2022-11-18T14:39:29.062Z,31.91
2022-11-18T14:41:55.405Z,32.08
2022-11-18T14:44:21.773Z,32.56
2022-11-18T14:46:48.106Z,32.13
2022-11-18T14:49:14.501Z,32.07
2022-11-18T14:51:40.851Z,32.07
2022-11-18T14:54:07.228Z,32.45
2022-11-18T14:56:33.573Z,32.23
2022-11-18T14:58:59.971Z,32.24
2022-11-18T15:01:30.412Z,32.24
2022-11-18T15:03:52.705Z,32.34
2022-11-18T15:06:19.049Z,32.29
2022-11-18T15:08:45.426Z,32.28
2022-11-18T15:11:11.773Z,32.46
2022-11-18T15:13:39.526Z,32.58
2022-11-18T15:16:04.497Z,32.68
2022-11-18T15:18:30.883Z,32.65
2022-11-18T15:20:57.222Z,32.71
2022-11-18T15:23:29.552Z,32.68
2022-11-18T15:25:49.953Z,32.79
2022-11-18T15:28:16.338Z,32.69
2022-11-18T15:30:42.705Z,32.86
2022-11-18T15:33:09.103Z,32.69
2022-11-18T15:35:35.468Z,32.64
2022-11-18T15:38:01.851Z,32.82
2022-11-18T15:40:28.196Z,32.72
2022-11-18T15:42:54.615Z,32.65
2022-11-18T15:45:21.000Z,32.72
2022-11-18T15:47:47.377Z,32.73
2022-11-18T15:50:13.726Z,32.72
2022-11-18T15:52:40.107Z,32.75
2022-11-18T15:55:08.193Z,32.70
2022-11-18T15:57:32.855Z,32.69
2022-11-18T15:59:59.193Z,32.75
2022-11-18T16:02:25.572Z,32.68
2022-11-18T16:04:51.906Z,32.64
2022-11-18T16:07:18.421Z,32.63
2022-11-18T16:09:44.664Z,32.62
2022-11-18T16:12:11.076Z,32.57
2022-11-18T16:14:37.461Z,32.65
2022-11-18T16:17:03.856Z,32.69
2022-11-18T16:19:30.224Z,32.67
2022-11-18T16:21:56.601Z,32.70
2022-11-18T16:24:22.988Z,32.72
2022-11-18T16:26:49.368Z,32.81
2022-11-18T16:29:15.793Z,32.78
2022-11-18T16:31:42.113Z,32.81
2022-11-18T16:34:08.454Z,32.81
2022-11-18T16:36:34.844Z,32.89
2022-11-18T16:39:01.184Z,32.89
2022-11-18T16:41:27.581Z,32.95
2022-11-18T16:43:53.919Z,33.00
2022-11-18T16:46:20.335Z,32.99
2022-11-18T16:48:48.608Z,33.04
2022-11-18T16:51:13.057Z,33.07
2022-11-18T16:53:39.400Z,33.13
2022-11-18T16:56:05.822Z,33.16
2022-11-18T16:58:32.167Z,33.07
2022-11-18T17:01:18.759Z,33.12
2022-11-18T17:03:24.883Z,33.14
2022-11-18T17:05:51.259Z,33.19
2022-11-18T17:08:17.601Z,33.18
2022-11-18T17:10:43.987Z,33.26
2022-11-18T17:13:10.321Z,33.26
2022-11-18T17:15:36.731Z,33.31
2022-11-18T17:18:03.064Z,33.27
2022-11-18T17:20:29.830Z,33.25
2022-11-18T17:22:56.103Z,33.28
2022-11-18T17:25:22.520Z,33.37
2022-11-18T17:27:48.860Z,33.31
2022-11-18T17:30:15.249Z,33.30
2022-11-18T17:32:41.608Z,33.28
2022-11-18T17:35:08.035Z,33.23
2022-11-18T17:37:34.390Z,33.30
2022-11-18T17:40:00.785Z,33.34
2022-11-18T17:42:27.159Z,33.33
2022-11-18T17:44:53.538Z,33.32
2022-11-18T17:47:19.876Z,33.29
2022-11-18T17:49:46.258Z,33.31
2022-11-18T17:52:12.598Z,33.30
2022-11-18T17:54:38.990Z,33.29
2022-11-18T17:57:05.362Z,33.28
2022-11-18T17:59:31.753Z,33.21
2022-11-18T18:01:59.802Z,33.26
2022-11-18T18:04:24.486Z,33.23
2022-11-18T18:06:50.831Z,33.25
2022-11-18T18:09:17.227Z,33.24
2022-11-18T18:11:43.573Z,33.20
2022-11-18T18:14:11.305Z,33.17
2022-11-18T18:16:36.366Z,33.26
2022-11-18T18:19:02.770Z,33.26
2022-11-18T18:21:29.125Z,33.26
2022-11-18T18:23:55.487Z,33.26
2022-11-18T18:26:25.265Z,33.25
2022-11-18T18:28:48.262Z,33.23
2022-11-18T18:31:14.637Z,33.24
2022-11-18T18:33:42.440Z,33.26
2022-11-18T18:36:07.354Z,33.24
2022-11-18T18:38:33.783Z,33.22
2022-11-18T18:41:00.091Z,33.26
2022-11-18T18:43:26.484Z,33.24
2022-11-18T18:45:52.829Z,33.26
2022-11-18T18:48:19.228Z,33.31
2022-11-18T18:50:45.577Z,33.33
2022-11-18T18:53:11.985Z,33.36
2022-11-18T18:55:44.548Z,33.36
2022-11-18T18:58:04.718Z,33.34
2022-11-18T19:00:31.065Z,33.35
2022-11-18T19:02:57.467Z,33.34
2022-11-18T19:05:45.945Z,33.33
2022-11-18T19:07:50.256Z,33.35
2022-11-18T19:10:16.560Z,33.39
2022-11-18T19:12:43.034Z,33.36
2022-11-18T19:15:09.353Z,33.47
2022-11-18T19:17:35.820Z,33.51
2022-11-18T19:20:02.083Z,33.51
2022-11-18T19:22:28.478Z,33.55
2022-11-18T19:24:55.190Z,33.57
2022-11-18T19:27:21.252Z,33.57
2022-11-18T19:29:47.616Z,33.62
2022-11-18T19:32:13.994Z,33.61
2022-11-18T19:34:40.349Z,33.65
2022-11-18T19:37:06.731Z,33.72
2022-11-18T19:39:33.072Z,33.88
2022-11-18T19:41:59.449Z,33.84
2022-11-18T19:44:25.808Z,33.97
2022-11-18T19:46:52.181Z,33.97
2022-11-18T19:49:18.863Z,33.97
2022-11-18T19:51:44.920Z,33.89
2022-11-18T19:54:11.254Z,33.88
2022-11-18T19:56:37.685Z,33.91
2022-11-18T19:59:04.092Z,34.07
2022-11-18T20:01:30.510Z,33.92
2022-11-18T20:03:56.851Z,34.15
2022-11-18T20:06:23.232Z,34.11
2022-11-18T20:08:49.575Z,34.15
2022-11-18T20:11:15.976Z,34.12
2022-11-18T20:13:42.313Z,34.21
2022-11-18T20:16:08.697Z,34.29
2022-11-18T20:18:35.040Z,34.29
2022-11-18T20:21:01.428Z,34.29
2022-11-18T20:23:27.771Z,34.34
2022-11-18T20:25:54.166Z,34.26
2022-11-18T20:28:20.506Z,34.18
2022-11-18T20:30:46.933Z,34.29
2022-11-18T20:33:13.268Z,34.23
2022-11-18T20:35:39.656Z,34.41
2022-11-18T20:38:06.005Z,34.34
2022-11-18T20:40:32.381Z,34.35
2022-11-18T20:42:58.725Z,34.28
2022-11-18T20:45:25.154Z,34.29
2022-11-18T20:47:51.460Z,34.29
2022-11-18T20:50:17.864Z,34.24
2022-11-18T20:52:44.203Z,34.33
2022-11-18T20:55:10.588Z,34.36
2022-11-18T20:57:36.959Z,34.36
2022-11-18T21:00:03.367Z,34.42
2022-11-18T21:02:29.714Z,34.31
2022-11-18T21:04:56.095Z,34.35
2022-11-18T21:07:22.481Z,34.38
2022-11-18T21:09:48.840Z,34.54
2022-11-18T21:12:15.177Z,34.45
2022-11-18T21:14:41.559Z,34.49
2022-11-18T21:17:07.905Z,34.55
2022-11-18T21:19:34.289Z,34.49
2022-11-18T21:22:00.636Z,34.55
2022-11-18T21:24:27.034Z,34.58
2022-11-18T21:26:53.385Z,34.53
2022-11-18T21:29:20.045Z,34.49
2022-11-18T21:31:46.117Z,34.52
2022-11-18T21:34:12.533Z,34.49
2022-11-18T21:36:44.175Z,34.45
2022-11-18T21:39:05.264Z,34.58
2022-11-18T21:41:31.654Z,34.54
2022-11-18T21:44:05.518Z,34.52
2022-11-18T21:46:24.432Z,34.58
2022-11-18T21:48:52.547Z,34.66
2022-11-18T21:51:17.196Z,34.58
2022-11-18T21:53:43.540Z,34.51
2022-11-18T21:56:09.933Z,34.51
2022-11-18T21:58:36.285Z,34.54
2022-11-18T22:01:02.684Z,34.61
2022-11-18T22:03:29.012Z,34.68
2022-11-18T22:05:55.393Z,34.69
2022-11-18T22:08:21.733Z,34.72
2022-11-18T22:10:48.117Z,34.68
2022-11-18T22:13:14.459Z,34.84
2022-11-18T22:15:40.854Z,34.92
2022-11-18T22:18:07.201Z,35.00
2022-11-18T22:20:33.586Z,34.86
2022-11-18T22:22:59.931Z,34.86
2022-11-18T22:25:26.328Z,34.84
2022-11-18T22:27:52.675Z,34.97
2022-11-18T22:30:19.060Z,34.88
2022-11-18T22:32:45.405Z,34.93
2022-11-18T22:35:11.799Z,34.97
2022-11-18T22:37:38.147Z,34.92
2022-11-18T22:40:04.535Z,35.02
2022-11-18T22:42:30.875Z,35.08
2022-11-18T22:44:57.262Z,35.09
2022-11-18T22:47:23.617Z,35.07
2022-11-18T22:49:55.050Z,35.03
2022-11-18T22:52:16.347Z,34.87
2022-11-18T22:54:42.729Z,34.94
2022-11-18T22:57:09.198Z,34.93
2022-11-18T22:59:35.527Z,34.95
2022-11-18T23:02:01.890Z,34.94
2022-11-18T23:04:28.292Z,35.00
2022-11-18T23:06:54.727Z,35.07
2022-11-18T23:09:21.355Z,35.10
2022-11-18T23:11:47.369Z,34.99
2022-11-18T23:14:13.765Z,35.03
2022-11-18T23:16:42.067Z,35.12
2022-11-18T23:19:06.501Z,35.21
2022-11-18T23:21:32.850Z,35.41
2022-11-18T23:23:59.263Z,35.19
2022-11-18T23:26:25.610Z,35.13
2022-11-18T23:28:51.998Z,35.11
2022-11-18T23:31:18.349Z,35.14
2022-11-18T23:33:44.734Z,35.16
2022-11-18T23:36:11.073Z,35.16
2022-11-18T23:38:37.462Z,35.17
2022-11-18T23:41:03.839Z,35.25
2022-11-18T23:43:30.224Z,35.26
2022-11-18T23:45:56.566Z,35.26
2022-11-18T23:48:22.952Z,35.25
2022-11-18T23:50:49.303Z,35.34
2022-11-18T23:53:15.726Z,35.48
2022-11-18T23:55:42.079Z,35.43
2022-11-18T23:58:08.462Z,35.44
